Terminal Aerodrome Forecast
Issued by NWS

Home | Current Version | Previous Version | Text Only | Print | Product List | Glossary On
Versions: 1 2 3 4 5 6 7 8 9 10 11 12 13 14 15 16 17 18 19 20 21 22 23 24 25 26 27
000
FTUS46 KMTR 290308 AAA
TAFSFO
TAF AMD
KSFO 290308Z 2903/3006 27019G29KT P6SM FEW012
     FM290500 28015G22KT P6SM FEW012
     FM290800 28011KT P6SM BKN015
     FM291700 29008KT P6SM FEW015
     FM292000 27018G25KT P6SM SCT200
     FM292300 27023G32KT P6SM SKC
     FM300500 27018G25KT P6SM FEW015=

USA.gov is the U.S. government's official web portal to all federal, state and local government web resources and services.